createdAt,value
2022-09-23T00:01:59.680Z,7.50
2022-09-23T00:04:31.566Z,7.50
2022-09-23T00:07:01.168Z,7.40
2022-09-23T00:09:31.066Z,7.40
2022-09-23T00:11:59.688Z,7.40
2022-09-23T00:14:30.917Z,7.40
2022-09-23T00:17:00.962Z,7.40
2022-09-23T00:19:31.106Z,7.40
2022-09-23T00:22:00.777Z,7.50
2022-09-23T00:24:32.424Z,7.40
2022-09-23T00:27:02.348Z,7.40
2022-09-23T00:29:33.983Z,7.40
2022-09-23T00:32:04.647Z,7.40
2022-09-23T00:34:35.102Z,7.40
2022-09-23T00:37:05.123Z,7.30
2022-09-23T00:39:35.115Z,7.30
2022-09-23T00:42:06.551Z,7.30
2022-09-23T00:44:52.430Z,7.30
2022-09-23T00:47:30.675Z,7.30
2022-09-23T00:50:06.380Z,7.30
2022-09-23T00:52:37.638Z,7.30
2022-09-23T00:55:11.456Z,7.30
2022-09-23T00:57:43.315Z,7.40
2022-09-23T01:00:17.609Z,7.40
2022-09-23T01:02:47.792Z,7.30
2022-09-23T01:05:18.105Z,7.30
2022-09-23T01:07:48.246Z,7.30
2022-09-23T01:10:19.519Z,7.20
2022-09-23T01:13:12.196Z,7.30
2022-09-23T01:15:49.780Z,7.30
2022-09-23T01:18:33.029Z,7.20
2022-09-23T01:21:24.958Z,7.20
2022-09-23T01:24:24.698Z,7.20
2022-09-23T01:27:17.501Z,7.10
2022-09-23T01:30:11.029Z,7.10
2022-09-23T01:33:10.586Z,7.20
2022-09-23T01:35:48.455Z,7.20
2022-09-23T01:38:27.917Z,7.10
2022-09-23T01:41:04.796Z,7.10
2022-09-23T01:43:41.405Z,7.10
2022-09-23T01:46:16.826Z,7.10
2022-09-23T01:48:51.449Z,7.10
2022-09-23T01:51:26.284Z,7.10
2022-09-23T01:54:02.422Z,7.10
2022-09-23T01:56:36.675Z,7.10
2022-09-23T01:59:13.575Z,7.10
2022-09-23T02:01:48.246Z,7.00
2022-09-23T02:04:25.245Z,7.00
2022-09-23T02:07:00.326Z,7.00
2022-09-23T02:09:37.378Z,7.00
2022-09-23T02:12:13.543Z,7.00
2022-09-23T02:14:50.023Z,7.00
2022-09-23T02:17:26.169Z,7.00
2022-09-23T02:20:02.396Z,7.10
2022-09-23T02:22:36.247Z,7.00
2022-09-23T02:25:07.671Z,7.00
2022-09-23T02:27:41.912Z,7.10
2022-09-23T02:30:16.327Z,7.00
2022-09-23T02:32:53.147Z,6.90
2022-09-23T02:35:34.637Z,6.90
2022-09-23T02:38:15.666Z,7.00
2022-09-23T02:40:54.301Z,7.00
2022-09-23T02:43:27.990Z,7.00
2022-09-23T02:45:58.175Z,7.00
2022-09-23T02:48:32.915Z,7.00
2022-09-23T02:51:04.281Z,6.90
2022-09-23T02:53:35.966Z,7.00
2022-09-23T02:56:14.036Z,7.00
2022-09-23T02:58:46.941Z,7.00
2022-09-23T03:01:32.652Z,7.00
2022-09-23T03:04:13.093Z,6.90
2022-09-23T03:06:55.201Z,6.90
2022-09-23T03:09:30.418Z,6.90
2022-09-23T03:12:06.995Z,6.80
2022-09-23T03:14:44.596Z,6.80
2022-09-23T03:17:21.783Z,6.80
2022-09-23T03:19:56.996Z,6.80
2022-09-23T03:22:34.492Z,6.80
2022-09-23T03:25:08.730Z,6.80
2022-09-23T03:27:42.457Z,6.70
2022-09-23T03:30:14.684Z,6.80
2022-09-23T03:32:47.513Z,6.70
2022-09-23T03:35:17.713Z,6.60
2022-09-23T03:37:53.350Z,6.60
2022-09-23T03:40:26.376Z,6.70
2022-09-23T03:42:57.873Z,6.60
2022-09-23T03:45:38.584Z,6.60
2022-09-23T03:48:09.710Z,6.60
2022-09-23T03:50:39.393Z,6.60
2022-09-23T03:53:13.815Z,6.60
2022-09-23T03:55:43.554Z,6.60
2022-09-23T03:58:13.450Z,6.60
2022-09-23T04:00:43.480Z,6.60
2022-09-23T04:03:13.457Z,6.60
2022-09-23T04:05:43.361Z,6.60
2022-09-23T04:08:14.891Z,6.50
2022-09-23T04:10:46.819Z,6.50
2022-09-23T04:13:17.153Z,6.50
2022-09-23T04:15:46.879Z,6.50
2022-09-23T04:18:16.997Z,6.50
2022-09-23T04:20:47.512Z,6.50
2022-09-23T04:23:18.797Z,6.50
2022-09-23T04:25:49.527Z,6.50
2022-09-23T04:28:19.318Z,6.40
2022-09-23T04:30:49.274Z,6.40
2022-09-23T04:33:19.459Z,6.40
2022-09-23T04:35:52.937Z,6.40
2022-09-23T04:38:24.309Z,6.50
2022-09-23T04:40:54.723Z,6.40
2022-09-23T04:43:25.523Z,6.40
2022-09-23T04:46:02.131Z,6.40
2022-09-23T04:48:32.842Z,6.50
2022-09-23T04:51:05.768Z,6.40
2022-09-23T04:53:39.782Z,6.40
2022-09-23T04:56:14.598Z,6.30
2022-09-23T04:58:44.455Z,6.30
2022-09-23T05:01:16.720Z,6.40
2022-09-23T05:03:47.324Z,6.40
2022-09-23T05:06:17.728Z,6.40
2022-09-23T05:08:53.493Z,6.40
2022-09-23T05:11:25.488Z,6.50
2022-09-23T05:13:56.844Z,6.50
2022-09-23T05:16:27.827Z,6.50
2022-09-23T05:18:58.069Z,6.50
2022-09-23T05:21:30.179Z,6.60
2022-09-23T05:24:01.866Z,6.60
2022-09-23T05:26:31.810Z,6.60
2022-09-23T05:29:01.628Z,6.60
2022-09-23T05:31:35.499Z,6.70
2022-09-23T05:34:06.656Z,6.70
2022-09-23T05:36:39.177Z,6.80
2022-09-23T05:39:11.058Z,6.80
2022-09-23T05:41:41.742Z,6.80
2022-09-23T05:44:11.471Z,6.80
2022-09-23T05:46:41.517Z,6.90
2022-09-23T05:49:12.069Z,6.90
2022-09-23T05:51:42.917Z,7.00
2022-09-23T05:54:14.083Z,7.00
2022-09-23T05:56:43.912Z,7.10
2022-09-23T05:59:13.479Z,7.10
2022-09-23T06:01:45.037Z,7.20
2022-09-23T06:04:15.972Z,7.30
2022-09-23T06:06:47.345Z,7.30
2022-09-23T06:09:18.417Z,7.40
2022-09-23T06:11:48.525Z,7.50
2022-09-23T06:14:18.767Z,7.60
2022-09-23T06:16:48.555Z,7.60
2022-09-23T06:19:18.445Z,7.70
2022-09-23T06:21:49.602Z,7.90
2022-09-23T06:24:25.894Z,7.90
2022-09-23T06:26:58.561Z,8.10
2022-09-23T06:29:29.999Z,8.20
2022-09-23T06:32:00.711Z,8.40
2022-09-23T06:34:32.788Z,8.60
2022-09-23T06:37:16.075Z,8.70
2022-09-23T06:39:50.217Z,8.80
2022-09-23T06:42:19.960Z,8.90
2022-09-23T06:44:49.814Z,9.00
2022-09-23T06:47:19.786Z,9.10
2022-09-23T06:49:49.773Z,9.30
2022-09-23T06:52:21.135Z,9.30
2022-09-23T06:54:52.469Z,9.40
2022-09-23T06:57:22.311Z,9.40
2022-09-23T06:59:52.110Z,9.30
2022-09-23T07:02:22.021Z,9.60
2022-09-23T07:04:52.065Z,9.70
2022-09-23T07:07:21.762Z,9.90
2022-09-23T07:09:52.822Z,10.00
2022-09-23T07:12:22.617Z,10.00
2022-09-23T07:14:52.822Z,10.00
2022-09-23T07:17:22.750Z,10.10
2022-09-23T07:19:54.905Z,10.20
2022-09-23T07:22:25.686Z,10.20
2022-09-23T07:24:57.402Z,10.30
2022-09-23T07:27:28.032Z,10.30
2022-09-23T07:29:57.673Z,10.50
2022-09-23T07:32:28.928Z,10.60
2022-09-23T07:35:01.049Z,10.60
2022-09-23T07:37:30.878Z,10.60
2022-09-23T07:40:01.854Z,10.90
2022-09-23T07:42:31.777Z,11.00
2022-09-23T07:45:02.201Z,11.00
2022-09-23T07:47:32.084Z,11.20
2022-09-23T07:50:02.123Z,11.30
2022-09-23T07:52:31.906Z,11.30
2022-09-23T07:55:02.899Z,11.40
2022-09-23T07:57:33.290Z,11.40
2022-09-23T08:00:03.341Z,11.70
2022-09-23T08:02:33.358Z,11.90
2022-09-23T08:05:03.448Z,12.10
2022-09-23T08:07:34.357Z,12.30
2022-09-23T08:10:05.531Z,12.40
2022-09-23T08:12:35.508Z,12.60
2022-09-23T08:15:05.387Z,12.80
2022-09-23T08:17:35.381Z,13.00
2022-09-23T08:20:05.689Z,13.00
2022-09-23T08:22:35.643Z,13.10
2022-09-23T08:25:08.315Z,13.30
2022-09-23T08:27:39.226Z,13.30
2022-09-23T08:30:08.430Z,13.30
2022-09-23T08:32:38.287Z,13.30
2022-09-23T08:35:09.427Z,13.50
2022-09-23T08:37:39.010Z,13.60
2022-09-23T08:40:11.935Z,13.60
2022-09-23T08:42:45.417Z,13.80
2022-09-23T08:45:20.740Z,14.00
2022-09-23T08:47:56.281Z,14.00
2022-09-23T08:50:29.339Z,13.90
2022-09-23T08:53:01.240Z,14.00
2022-09-23T08:55:36.985Z,14.20
2022-09-23T08:58:25.678Z,14.30
2022-09-23T09:01:03.643Z,14.50
2022-09-23T09:03:36.533Z,14.60
2022-09-23T09:06:07.255Z,14.70
2022-09-23T09:08:40.050Z,14.80
2022-09-23T09:11:12.142Z,14.90
2022-09-23T09:13:48.822Z,15.20
2022-09-23T09:16:55.543Z,15.20
2022-09-23T09:19:27.906Z,15.10
2022-09-23T09:21:57.888Z,15.50
2022-09-23T09:24:34.595Z,15.70
2022-09-23T09:27:13.670Z,16.20
2022-09-23T09:29:49.762Z,16.60
2022-09-23T09:32:29.125Z,16.80
2022-09-23T09:35:01.952Z,17.00
2022-09-23T09:37:37.428Z,17.30
2022-09-23T09:40:16.298Z,17.40
2022-09-23T09:42:51.232Z,17.60
2022-09-23T09:45:28.844Z,17.60
2022-09-23T09:48:04.073Z,17.80
2022-09-23T09:50:49.253Z,17.90
2022-09-23T09:53:30.408Z,18.00
2022-09-23T09:56:05.013Z,18.20
2022-09-23T09:58:46.371Z,18.50
2022-09-23T10:01:20.531Z,18.70
2022-09-23T10:03:57.002Z,18.80
2022-09-23T10:06:31.653Z,18.90
2022-09-23T10:09:21.640Z,18.70
2022-09-23T10:12:11.405Z,18.70
2022-09-23T10:14:42.716Z,18.50
2022-09-23T10:17:20.522Z,18.40
2022-09-23T10:19:57.994Z,18.30
2022-09-23T10:22:30.266Z,18.10
2022-09-23T10:25:03.917Z,18.30
2022-09-23T10:27:35.736Z,18.40
2022-09-23T10:30:21.536Z,18.30
2022-09-23T10:32:52.091Z,18.20
2022-09-23T10:35:23.852Z,18.10
2022-09-23T10:37:55.785Z,18.40
2022-09-23T10:40:49.478Z,18.50
2022-09-23T10:43:41.656Z,19.00
2022-09-23T10:46:36.080Z,18.70
2022-09-23T10:49:21.732Z,18.80
2022-09-23T10:52:00.227Z,19.10
2022-09-23T10:54:38.930Z,19.50
2022-09-23T10:57:37.496Z,19.90
2022-09-23T11:00:14.269Z,20.20
2022-09-23T11:03:18.863Z,19.80
2022-09-23T11:05:57.410Z,20.00
2022-09-23T11:08:40.436Z,19.90
2022-09-23T11:11:16.308Z,19.90
2022-09-23T11:13:58.834Z,19.50
2022-09-23T11:16:42.511Z,18.90
2022-09-23T11:19:41.080Z,19.40
2022-09-23T11:22:37.474Z,19.70
2022-09-23T11:25:25.800Z,20.10
2022-09-23T11:28:23.377Z,20.10
2022-09-23T11:31:01.716Z,20.10
2022-09-23T11:33:40.639Z,20.00
2022-09-23T11:36:17.767Z,20.00
2022-09-23T11:38:50.949Z,19.90
2022-09-23T11:41:25.808Z,19.70
2022-09-23T11:43:59.787Z,19.90
2022-09-23T11:46:35.566Z,19.40
2022-09-23T11:49:15.448Z,19.20
2022-09-23T11:51:56.617Z,19.90
2022-09-23T11:54:30.847Z,19.90
2022-09-23T11:57:05.813Z,19.90
2022-09-23T11:59:41.620Z,19.50
2022-09-23T12:02:22.236Z,19.60
2022-09-23T12:05:01.342Z,19.70
2022-09-23T12:07:42.428Z,19.90
2022-09-23T12:10:13.445Z,19.90
2022-09-23T12:12:48.843Z,20.30
2022-09-23T12:15:28.634Z,20.80
2022-09-23T12:18:22.341Z,21.00
2022-09-23T12:21:32.740Z,20.60
2022-09-23T12:24:26.660Z,20.70
2022-09-23T12:27:00.426Z,20.80
2022-09-23T12:29:33.270Z,20.80
2022-09-23T12:32:07.381Z,20.20
2022-09-23T12:34:47.915Z,20.40
2022-09-23T12:37:26.413Z,20.70
2022-09-23T12:39:59.990Z,21.00
2022-09-23T12:42:31.411Z,21.20
2022-09-23T12:45:19.210Z,20.80
2022-09-23T12:47:48.849Z,20.40
2022-09-23T12:50:49.178Z,20.10
2022-09-23T12:53:56.310Z,19.70
2022-09-23T12:56:28.427Z,19.50
2022-09-23T12:59:25.074Z,20.10
2022-09-23T13:01:55.764Z,20.30
2022-09-23T13:04:54.288Z,19.70
2022-09-23T13:07:25.826Z,19.30
2022-09-23T13:10:00.778Z,19.50
2022-09-23T13:12:38.878Z,19.70
2022-09-23T13:15:17.243Z,20.20
2022-09-23T13:17:47.702Z,20.50
2022-09-23T13:20:38.263Z,20.10
2022-09-23T13:23:25.456Z,19.80
2022-09-23T13:25:57.309Z,20.10
2022-09-23T13:28:33.808Z,19.90
2022-09-23T13:31:06.220Z,19.90
2022-09-23T13:33:45.185Z,20.20
2022-09-23T13:36:17.590Z,20.40
2022-09-23T13:38:48.318Z,20.30
2022-09-23T13:41:20.764Z,20.50
2022-09-23T13:43:55.311Z,20.20
2022-09-23T13:46:27.365Z,20.60
2022-09-23T13:48:58.155Z,20.60
2022-09-23T13:51:30.431Z,20.00
2022-09-23T13:54:02.235Z,19.60
2022-09-23T13:56:35.241Z,19.70
2022-09-23T13:59:23.636Z,19.60
2022-09-23T14:02:02.894Z,19.60
2022-09-23T14:04:33.085Z,19.40
2022-09-23T14:07:03.159Z,19.80
2022-09-23T14:09:35.547Z,19.70
2022-09-23T14:12:09.194Z,19.70
2022-09-23T14:14:43.215Z,19.50
2022-09-23T14:17:19.290Z,19.60
2022-09-23T14:19:50.117Z,19.90
2022-09-23T14:22:29.081Z,20.10
2022-09-23T14:25:00.182Z,20.30
2022-09-23T14:27:32.652Z,20.10
2022-09-23T14:30:05.426Z,20.30
2022-09-23T14:32:35.376Z,20.50
2022-09-23T14:35:17.765Z,20.40
2022-09-23T14:38:05.305Z,20.10
2022-09-23T14:40:36.896Z,19.90
2022-09-23T14:43:15.694Z,20.00
2022-09-23T14:45:51.256Z,20.20
2022-09-23T14:48:24.582Z,20.10
2022-09-23T14:50:56.970Z,19.90
2022-09-23T14:53:40.241Z,19.80
2022-09-23T14:56:18.324Z,19.40
2022-09-23T14:58:52.544Z,19.30
2022-09-23T15:01:40.686Z,19.10
2022-09-23T15:04:15.023Z,19.00
2022-09-23T15:06:48.978Z,19.10
2022-09-23T15:09:23.612Z,18.60
2022-09-23T15:11:58.516Z,18.40
2022-09-23T15:14:38.315Z,18.30
2022-09-23T15:17:18.175Z,18.50
2022-09-23T15:19:52.370Z,18.40
2022-09-23T15:22:22.131Z,18.40
2022-09-23T15:24:54.677Z,18.30
2022-09-23T15:27:31.675Z,18.30
2022-09-23T15:30:15.191Z,18.20
2022-09-23T15:32:46.959Z,18.30
2022-09-23T15:35:16.377Z,18.30
2022-09-23T15:37:47.704Z,18.30
2022-09-23T15:40:20.768Z,18.20
2022-09-23T15:42:52.544Z,18.10
2022-09-23T15:45:28.773Z,18.00
2022-09-23T15:48:04.168Z,17.90
2022-09-23T15:50:35.181Z,17.90
2022-09-23T15:53:06.027Z,17.80
2022-09-23T15:55:35.729Z,17.60
2022-09-23T15:58:05.659Z,17.60
2022-09-23T16:00:36.560Z,17.70
2022-09-23T16:03:07.755Z,17.70
2022-09-23T16:05:39.622Z,17.70
2022-09-23T16:08:10.474Z,17.50
2022-09-23T16:10:40.557Z,17.30
2022-09-23T16:13:14.502Z,17.10
2022-09-23T16:15:44.585Z,17.00
2022-09-23T16:18:16.176Z,16.80
2022-09-23T16:20:48.753Z,16.70
2022-09-23T16:23:34.669Z,16.50
2022-09-23T16:26:09.242Z,16.40
2022-09-23T16:28:39.075Z,16.10
2022-09-23T16:31:09.409Z,15.80
2022-09-23T16:33:40.842Z,15.70
2022-09-23T16:36:15.477Z,15.60
2022-09-23T16:38:45.269Z,15.60
2022-09-23T16:41:15.449Z,15.50
2022-09-23T16:43:45.097Z,15.50
2022-09-23T16:46:19.457Z,15.40
2022-09-23T16:48:52.896Z,15.30
2022-09-23T16:51:26.450Z,15.10
2022-09-23T16:54:00.750Z,15.00
2022-09-23T16:56:32.104Z,15.00
2022-09-23T16:59:01.791Z,14.90
2022-09-23T17:01:50.245Z,14.90
2022-09-23T17:04:22.113Z,14.80
2022-09-23T17:06:54.300Z,14.60
2022-09-23T17:09:25.770Z,14.60
2022-09-23T17:12:04.241Z,14.50
2022-09-23T17:14:35.202Z,14.30
2022-09-23T17:17:06.594Z,14.30
2022-09-23T17:19:41.309Z,14.20
2022-09-23T17:22:11.363Z,14.10
2022-09-23T17:24:40.979Z,14.10
2022-09-23T17:27:12.086Z,13.90
2022-09-23T17:29:41.995Z,13.80
2022-09-23T17:32:11.963Z,13.70
2022-09-23T17:34:44.044Z,13.60
2022-09-23T17:37:12.311Z,13.60
2022-09-23T17:39:42.654Z,13.50
2022-09-23T17:42:12.639Z,13.50
2022-09-23T17:44:42.562Z,13.40
2022-09-23T17:47:12.785Z,13.40
2022-09-23T17:49:46.782Z,13.40
2022-09-23T17:52:16.811Z,13.30
2022-09-23T17:54:47.426Z,13.30
2022-09-23T17:57:15.470Z,13.30
2022-09-23T17:59:45.984Z,13.20
2022-09-23T18:02:16.036Z,13.20
2022-09-23T18:04:47.630Z,13.20
2022-09-23T18:07:19.307Z,13.20
2022-09-23T18:09:49.210Z,13.10
2022-09-23T18:12:17.354Z,13.10
2022-09-23T18:14:48.315Z,13.10
2022-09-23T18:17:18.245Z,13.10
2022-09-23T18:19:50.521Z,13.10
2022-09-23T18:22:21.748Z,13.10
2022-09-23T18:24:51.434Z,13.10
2022-09-23T18:27:21.672Z,13.10
2022-09-23T18:29:51.233Z,13.10
2022-09-23T18:32:20.917Z,13.00
2022-09-23T18:34:52.027Z,13.00
2022-09-23T18:37:22.411Z,13.00
2022-09-23T18:39:52.180Z,13.00
2022-09-23T18:42:23.617Z,12.90
2022-09-23T18:44:56.336Z,12.90
2022-09-23T18:47:43.877Z,12.80
2022-09-23T18:50:33.762Z,12.80
2022-09-23T18:53:04.660Z,12.80
2022-09-23T18:55:36.937Z,12.80
2022-09-23T18:58:07.430Z,12.80
2022-09-23T19:00:38.172Z,12.90
2022-09-23T19:03:07.817Z,12.90
2022-09-23T19:05:39.064Z,12.90
2022-09-23T19:08:09.463Z,12.70
2022-09-23T19:10:37.555Z,12.60
2022-09-23T19:13:07.991Z,12.60
2022-09-23T19:15:37.659Z,12.70
2022-09-23T19:18:08.582Z,12.70
2022-09-23T19:20:49.958Z,12.70
2022-09-23T19:23:23.247Z,12.60
2022-09-23T19:25:53.453Z,12.50
2022-09-23T19:28:23.664Z,12.40
2022-09-23T19:30:55.281Z,12.30
2022-09-23T19:33:26.153Z,12.30
2022-09-23T19:35:58.531Z,12.30
2022-09-23T19:38:28.857Z,12.40
2022-09-23T19:40:58.685Z,12.30
2022-09-23T19:43:29.809Z,12.30
2022-09-23T19:45:59.624Z,12.40
2022-09-23T19:48:29.417Z,12.50
2022-09-23T19:51:01.035Z,12.60
2022-09-23T19:53:31.229Z,12.60
2022-09-23T19:56:03.341Z,12.60
2022-09-23T19:58:33.290Z,12.60
2022-09-23T20:01:07.160Z,12.70
2022-09-23T20:03:37.553Z,12.70
2022-09-23T20:06:09.266Z,12.70
2022-09-23T20:08:40.023Z,12.60
2022-09-23T20:11:15.166Z,12.50
2022-09-23T20:13:47.714Z,12.40
2022-09-23T20:16:19.190Z,12.40
2022-09-23T20:18:52.871Z,12.30
2022-09-23T20:21:24.340Z,12.50
2022-09-23T20:23:54.535Z,12.50
2022-09-23T20:26:42.399Z,12.50
2022-09-23T20:29:12.206Z,12.40
2022-09-23T20:31:42.265Z,12.40
2022-09-23T20:34:12.863Z,12.30
2022-09-23T20:36:44.119Z,12.20
2022-09-23T20:39:14.102Z,12.20
2022-09-23T20:41:44.556Z,12.30
2022-09-23T20:44:14.961Z,12.30
2022-09-23T20:46:48.989Z,12.10
2022-09-23T20:49:19.727Z,11.80
2022-09-23T20:51:51.911Z,11.60
2022-09-23T20:54:23.116Z,11.60
2022-09-23T20:56:53.909Z,11.70
2022-09-23T20:59:23.986Z,11.80
2022-09-23T21:01:55.553Z,11.80
2022-09-23T21:04:25.289Z,11.70
2022-09-23T21:06:58.151Z,11.70
2022-09-23T21:09:30.869Z,11.70
2022-09-23T21:12:01.043Z,11.70
2022-09-23T21:14:31.377Z,11.60
2022-09-23T21:17:01.388Z,11.70
2022-09-23T21:19:31.355Z,11.70
2022-09-23T21:22:02.919Z,11.70
2022-09-23T21:24:53.603Z,11.60
2022-09-23T21:27:22.852Z,11.60
2022-09-23T21:29:56.540Z,11.60
2022-09-23T21:32:26.396Z,11.50
2022-09-23T21:34:56.030Z,11.50
2022-09-23T21:37:27.134Z,11.50
2022-09-23T21:40:10.804Z,11.50
2022-09-23T21:42:40.595Z,11.50
2022-09-23T21:45:09.292Z,11.50
2022-09-23T21:47:40.392Z,11.40
2022-09-23T21:50:12.175Z,11.40
2022-09-23T21:52:44.838Z,11.40
2022-09-23T21:55:14.638Z,11.40
2022-09-23T21:57:46.127Z,11.40
2022-09-23T22:00:17.444Z,11.40
2022-09-23T22:02:47.473Z,11.30
2022-09-23T22:05:19.442Z,11.20
2022-09-23T22:07:50.759Z,11.10
2022-09-23T22:10:20.582Z,11.10
2022-09-23T22:12:51.925Z,11.10
2022-09-23T22:15:21.538Z,11.10
2022-09-23T22:17:52.593Z,11.10
2022-09-23T22:20:22.637Z,11.10
2022-09-23T22:22:54.590Z,11.00
2022-09-23T22:25:24.612Z,11.00
2022-09-23T22:28:12.210Z,11.10
2022-09-23T22:31:00.592Z,11.10
2022-09-23T22:33:30.513Z,11.00
2022-09-23T22:36:04.885Z,10.90
2022-09-23T22:38:36.780Z,10.90
2022-09-23T22:41:06.484Z,11.00
2022-09-23T22:43:37.518Z,11.00
2022-09-23T22:46:07.343Z,10.90
2022-09-23T22:48:36.939Z,10.90
2022-09-23T22:51:07.250Z,10.90
2022-09-23T22:53:38.247Z,10.90
2022-09-23T22:56:08.205Z,11.00
2022-09-23T22:58:38.329Z,11.00
2022-09-23T23:01:10.623Z,11.00
2022-09-23T23:03:41.857Z,11.10
2022-09-23T23:06:13.315Z,11.10
2022-09-23T23:08:44.348Z,11.10
2022-09-23T23:11:14.075Z,11.20
2022-09-23T23:13:44.478Z,11.20
2022-09-23T23:16:15.560Z,11.20
2022-09-23T23:18:47.713Z,11.10
2022-09-23T23:21:19.269Z,11.10
2022-09-23T23:23:53.491Z,11.00
2022-09-23T23:26:26.046Z,10.90
2022-09-23T23:28:56.906Z,11.00
2022-09-23T23:31:28.749Z,10.90
2022-09-23T23:33:58.705Z,10.90
2022-09-23T23:36:28.575Z,10.90
2022-09-23T23:38:59.860Z,10.90
2022-09-23T23:41:29.821Z,10.90
2022-09-23T23:44:01.401Z,10.80
2022-09-23T23:46:32.799Z,10.80
2022-09-23T23:49:03.361Z,10.80
2022-09-23T23:51:33.414Z,10.80
2022-09-23T23:54:04.738Z,10.70
2022-09-23T23:56:34.789Z,10.70
2022-09-23T23:59:05.402Z,10.60
